< < Back
Terminal Aerodrome Forecast


Current Version              Previous Versions:   1  2  3  4  5  6  7  8  9  

Terminal Aerodrome Forecast

152
FTUS42 KCAE 032139 AAC
TAFCAE
TAF AMD
KCAE 032139Z 0322/0418 23005KT P6SM SCT050 BKN150
      TEMPO 0322/0323 05015G25KT 3SM TSRA SCT050CB
     FM040200 VRB03KT P6SM SCT150=

Latest METAR

890
SAUS80 KWBC 041600
MTRCAE
METAR KCAE 041556Z VRB04KT 10SM FEW045 33/22 A2998 RMK AO2 SLP149
T03280217


USA.gov is the U.S. government's official web portal to all federal, state and local government web resources and services.